Matt Devall — WCQ7740 — position and weather

sailwx.info

Track history (hours):
 
Tides and Currents Weather Stations Pressure Air Temp Water Temp Dewpoint Dewpoint Depression Visibility Wind Speed Wind Dir Waves Ship Positions

Matt Devall

Owner: MATT DEVALL INC, HACKBERRY, LA. More information available from US FCC via Universal Licensing System and Coast Guard Vessel Documentation Center.

Last reported at 2017-Sep-21 12:00 UTC. Time now 2017-Sep-21 12:27 UTC.
Position N 30°14' W 093°15'.

Length 17 m; draft 2.6 m.

MMSI: 366974120.

Date/timePositionNaut miles runAvg speedWind from/ knotsBaromVisibWave heightAir tempDewpointWater temp
2017-Sep-21 12:00N 30°14' W 093°15'0 0.0
2017-Sep-21 11:30N 30°14' W 093°15'0 0.0
2017-Sep-21 11:00N 30°14' W 093°15'0 0.0
2017-Sep-21 10:30N 30°14' W 093°15'0 0.0
2017-Sep-21 10:00N 30°14' W 093°15'0 0.0
2017-Sep-21 09:30N 30°14' W 093°15'0 0.0
2017-Sep-21 09:00N 30°14' W 093°15'0 0.0
2017-Sep-21 08:30N 30°14' W 093°15'0 0.0
2017-Sep-21 08:00N 30°14' W 093°15'0 0.0
2017-Sep-21 07:30N 30°14' W 093°15'0 0.0
2017-Sep-21 07:00N 30°14' W 093°15'0 0.0
2017-Sep-21 06:30N 30°14' W 093°15'1 1.8
2017-Sep-21 06:00N 30°13' W 093°16'3 7.0
2017-Sep-21 05:30N 30°11' W 093°19'3 6.8
2017-Sep-21 05:00N 30°08' W 093°20'3 6.7
2017-Sep-21 04:30N 30°04' W 093°21'1 1.5
2017-Sep-21 04:00N 30°04' W 093°21'1 1.1
2017-Sep-21 03:30N 30°04' W 093°21'0 0.6
2017-Sep-21 03:00N 30°04' W 093°20'1 3.0
2017-Sep-21 02:30N 30°06' W 093°20'3 6.6
2017-Sep-21 02:00N 30°09' W 093°20'2 4.3
2017-Sep-21 01:30N 30°11' W 093°19'3 5.3
2017-Sep-21 01:00N 30°13' W 093°17'1 1.4
2017-Sep-21 00:30N 30°14' W 093°17'0 0.2
2017-Sep-21 00:00N 30°13' W 093°17'0 0.1
2017-Sep-20 23:30N 30°13' W 093°17'0 0.0
2017-Sep-20 23:00N 30°13' W 093°17'0 0.0
2017-Sep-20 22:30N 30°13' W 093°17'0 0.0
2017-Sep-20 22:00N 30°13' W 093°17'3 5.3
2017-Sep-20 21:30N 30°11' W 093°18'0 0.7
2017-Sep-20 21:00N 30°11' W 093°19'0 0.3
2017-Sep-20 20:30N 30°11' W 093°19'0 0.0
2017-Sep-20 20:00N 30°11' W 093°19'0 0.0
2017-Sep-20 19:30N 30°11' W 093°19'0 0.0
2017-Sep-20 19:00N 30°11' W 093°19'0 0.0
2017-Sep-20 18:30N 30°11' W 093°19'3 5.7
2017-Sep-20 18:00N 30°12' W 093°16'2 3.0
2017-Sep-20 17:30N 30°14' W 093°15'0 0.0
2017-Sep-20 17:00N 30°14' W 093°15'0 0.0
2017-Sep-20 16:30N 30°14' W 093°15'1 1.8
2017-Sep-20 16:00N 30°13' W 093°15'0 0.7
2017-Sep-20 15:30N 30°13' W 093°15'0 0.4
2017-Sep-20 15:00N 30°14' W 093°15'2 2.2
2017-Sep-20 14:00N 30°12' W 093°17'3 5.4
2017-Sep-20 13:30N 30°10' W 093°19'2 4.8
2017-Sep-20 13:00N 30°08' W 093°20'3 5.1
2017-Sep-20 12:30N 30°06' W 093°20'2 4.4
2017-Sep-20 12:00N 30°04' W 093°21'1 1.7
2017-Sep-20 11:30N 30°04' W 093°20'1 1.5
2017-Sep-20 11:00N 30°05' W 093°20'0 0.0
2017-Sep-20 10:30N 30°05' W 093°20'0 0.0
2017-Sep-20 10:00N 30°05' W 093°20'0 0.0
2017-Sep-20 09:30N 30°05' W 093°20'0 0.0
2017-Sep-20 09:00N 30°05' W 093°20'0 0.0
2017-Sep-20 08:30N 30°05' W 093°20'0 0.0
2017-Sep-20 08:00N 30°05' W 093°20'1 3.0
2017-Sep-20 07:30N 30°06' W 093°20'2 5.0
2017-Sep-20 07:00N 30°09' W 093°20'2 4.3
2017-Sep-20 06:30N 30°11' W 093°19'3 5.7
2017-Sep-20 06:00N 30°12' W 093°16'2 3.2
2017-Sep-20 05:30N 30°14' W 093°15'0 0.0
2017-Sep-20 05:00N 30°14' W 093°15'0 0.1
2017-Sep-20 04:30N 30°14' W 093°15'3 5.1
2017-Sep-20 04:00N 30°12' W 093°17'3 5.3
2017-Sep-20 03:30N 30°10' W 093°19'3 5.3
2017-Sep-20 03:00N 30°07' W 093°20'3 5.5
2017-Sep-20 02:30N 30°05' W 093°20'1 2.2
2017-Sep-20 02:00N 30°04' W 093°21'0 0.0
2017-Sep-20 01:30N 30°04' W 093°21'0 0.0
2017-Sep-20 01:00N 30°04' W 093°21'0 0.2
2017-Sep-20 00:30N 30°04' W 093°21'3 5.1
2017-Sep-20 00:00N 30°06' W 093°20'3 6.2
2017-Sep-19 23:30N 30°09' W 093°20'3 5.9
2017-Sep-19 23:00N 30°11' W 093°18'3 5.8
2017-Sep-19 22:30N 30°13' W 093°16'1 1.4
2017-Sep-19 22:00N 30°14' W 093°15'0 0.0
2017-Sep-19 21:30N 30°14' W 093°15'0 0.0
2017-Sep-19 21:00N 30°14' W 093°15'0 0.0
2017-Sep-19 20:30N 30°14' W 093°15'0 0.0
2017-Sep-19 20:00N 30°14' W 093°15'0 0.0
2017-Sep-19 19:30N 30°14' W 093°15'0 0.0
2017-Sep-19 19:00N 30°14' W 093°15'0 0.0
2017-Sep-19 18:30N 30°14' W 093°15'0 0.0
2017-Sep-19 18:00N 30°14' W 093°15'0 0.0
2017-Sep-19 17:30N 30°14' W 093°15'0 0.0
2017-Sep-19 17:00N 30°14' W 093°15'0 0.0
2017-Sep-19 16:30N 30°14' W 093°15'0 0.0
2017-Sep-19 16:00N 30°14' W 093°15'0 0.0
2017-Sep-19 15:30N 30°14' W 093°15'0 0.0
2017-Sep-19 15:00N 30°14' W 093°15'0 0.0
2017-Sep-19 14:30N 30°14' W 093°15'0 0.0
2017-Sep-19 14:00N 30°14' W 093°15'0 0.0
2017-Sep-19 13:30N 30°14' W 093°15'0 0.0
2017-Sep-19 13:00N 30°14' W 093°15'0 0.0
2017-Sep-19 12:30N 30°14' W 093°15'0 0.0
2017-Sep-19 12:00N 30°14' W 093°15'0 0.0
2017-Sep-19 11:30N 30°14' W 093°15'0 0.0
2017-Sep-19 11:00N 30°14' W 093°15'0 0.0
2017-Sep-19 10:30N 30°14' W 093°15'0 0.0
2017-Sep-19 10:00N 30°14' W 093°15'0 0.0
2017-Sep-19 09:30N 30°14' W 093°15'0 0.0
2017-Sep-19 09:00N 30°14' W 093°15'0 0.0
2017-Sep-19 08:30N 30°14' W 093°15'1 2.3
2017-Sep-19 08:00N 30°13' W 093°16'3 5.9
2017-Sep-19 07:30N 30°11' W 093°18'3 6.3
2017-Sep-19 07:00N 30°08' W 093°20'4 7.1
2017-Sep-19 06:30N 30°05' W 093°20'2 3.3
2017-Sep-19 06:00N 30°04' W 093°22'0 0.7
2017-Sep-19 05:30N 30°04' W 093°21'0 0.0
2017-Sep-19 05:00N 30°04' W 093°21'0 0.0
2017-Sep-19 04:30N 30°04' W 093°21'0 0.0
2017-Sep-19 04:00N 30°04' W 093°21'0 0.0
2017-Sep-19 03:30N 30°04' W 093°21'0 0.0
2017-Sep-19 03:00N 30°04' W 093°21'0 0.0
2017-Sep-19 02:30N 30°04' W 093°21'0 0.0
2017-Sep-19 02:00N 30°04' W 093°21'0 0.0
2017-Sep-19 01:30N 30°04' W 093°21'0 0.0
2017-Sep-19 01:00N 30°04' W 093°21'0 0.0
2017-Sep-19 00:30N 30°04' W 093°21'1 1.6
2017-Sep-19 00:00N 30°04' W 093°22'0 0.6
2017-Sep-18 23:30N 30°04' W 093°22'1 2.4
2017-Sep-18 23:00N 30°04' W 093°21'1 2.1
2017-Sep-18 22:30N 30°05' W 093°20'0 0.0
2017-Sep-18 22:00N 30°05' W 093°20'1 1.3
2017-Sep-18 21:30N 30°06' W 093°20'3 6.0
2017-Sep-18 21:00N 30°09' W 093°20'3 5.8
2017-Sep-18 20:30N 30°11' W 093°18'3 6.1
2017-Sep-18 20:00N 30°13' W 093°16'1 1.6
2017-Sep-18 19:29N 30°14' W 093°15'0 0.0
2017-Sep-18 18:58N 30°14' W 093°15'2 3.7
2017-Sep-18 18:30N 30°12' W 093°16'3 6.2
2017-Sep-18 18:00N 30°10' W 093°19'3 5.8
2017-Sep-18 17:30N 30°07' W 093°20'3 5.8
2017-Sep-18 17:00N 30°05' W 093°20'1 2.4
2017-Sep-18 16:30N 30°04' W 093°21'0 0.0
2017-Sep-18 16:00N 30°04' W 093°21'0 0.0
2017-Sep-18 15:30N 30°04' W 093°21'0 0.0
2017-Sep-18 15:00N 30°04' W 093°21'0 0.0
2017-Sep-18 14:30N 30°04' W 093°21'0 0.0
2017-Sep-18 14:00N 30°04' W 093°21'0 0.0
2017-Sep-18 13:30N 30°04' W 093°21'0 0.0
2017-Sep-18 13:00N 30°04' W 093°21'0 0.0
2017-Sep-18 12:30N 30°04' W 093°21'0 0.1
2017-Sep-18 12:00N 30°04' W 093°21'1 2.9
2017-Sep-18 11:30N 30°05' W 093°20'1 3.0
2017-Sep-18 11:00N 30°04' W 093°21'0 0.0
2017-Sep-18 10:30N 30°04' W 093°21'0 0.0
2017-Sep-18 10:00N 30°04' W 093°21'0 0.0
2017-Sep-18 09:30N 30°04' W 093°21'0 0.3
2017-Sep-18 09:00N 30°04' W 093°21'2 3.0
2017-Sep-18 08:30N 30°05' W 093°20'3 5.5
2017-Sep-18 08:00N 30°07' W 093°20'1 2.5
2017-Sep-18 07:30N 30°09' W 093°20'2 3.2
2017-Sep-18 07:00N 30°07' W 093°20'2 4.4
2017-Sep-18 06:30N 30°05' W 093°20'0 0.0
2017-Sep-18 06:00N 30°05' W 093°20'2 3.6
2017-Sep-18 05:30N 30°06' W 093°18'1 1.0
2017-Sep-18 05:00N 30°07' W 093°18'3 6.3
2017-Sep-18 04:30N 30°04' W 093°20'1 1.9
2017-Sep-18 04:00N 30°04' W 093°21'0 0.0
2017-Sep-18 03:30N 30°04' W 093°21'1 2.5
2017-Sep-18 03:00N 30°05' W 093°20'2 4.8
2017-Sep-18 02:30N 30°06' W 093°18'0 0.1
2017-Sep-18 02:00N 30°06' W 093°18'1 1.2
2017-Sep-18 01:30N 30°06' W 093°18'0 0.0
2017-Sep-18 01:00N 30°06' W 093°18'0 0.0
2017-Sep-18 00:30N 30°06' W 093°18'0 0.0
2017-Sep-18 00:00N 30°06' W 093°18'0 0.0
2017-Sep-17 23:30N 30°06' W 093°18'0 0.0
2017-Sep-17 23:00N 30°06' W 093°18'1 1.6
2017-Sep-17 22:30N 30°06' W 093°19'0 0.1
2017-Sep-17 22:00N 30°06' W 093°19'0 0.0
2017-Sep-17 21:30N 30°06' W 093°19'0 0.0
2017-Sep-17 21:00N 30°06' W 093°19'0 0.0
2017-Sep-17 20:30N 30°06' W 093°19'0 0.0
2017-Sep-17 20:00N 30°06' W 093°19'1 1.4
2017-Sep-17 19:30N 30°06' W 093°18'0 0.0
2017-Sep-17 19:00N 30°06' W 093°18'0 0.0
2017-Sep-17 18:30N 30°06' W 093°18'0 0.0
2017-Sep-17 18:00N 30°06' W 093°18'0 0.0
2017-Sep-17 17:30N 30°06' W 093°18'0 0.0
2017-Sep-17 17:00N 30°06' W 093°18'1 1.4
2017-Sep-17 16:30N 30°06' W 093°19'3 5.5
2017-Sep-17 16:00N 30°04' W 093°21'0 0.0
2017-Sep-17 15:30N 30°04' W 093°21'1 1.5
2017-Sep-17 15:00N 30°04' W 093°21'1 1.5
2017-Sep-17 14:30N 30°04' W 093°21'0 0.0
2017-Sep-17 14:00N 30°04' W 093°21'0 0.0
2017-Sep-17 13:30N 30°04' W 093°21'0 0.0
2017-Sep-17 13:00N 30°04' W 093°21'0 0.0
2017-Sep-17 12:30N 30°04' W 093°21'0 0.0
2017-Sep-17 12:00N 30°04' W 093°21'0 0.0
2017-Sep-17 11:30N 30°04' W 093°21'0 0.0
2017-Sep-17 11:00N 30°04' W 093°21'0 0.0
2017-Sep-17 10:30N 30°04' W 093°21'1 2.3
2017-Sep-17 10:00N 30°05' W 093°20'0 0.0
2017-Sep-17 09:30N 30°05' W 093°20'0 0.0
2017-Sep-17 09:00N 30°05' W 093°20'1 1.3
2017-Sep-17 08:30N 30°05' W 093°20'2 4.8
2017-Sep-17 08:00N 30°07' W 093°18'1 1.6
2017-Sep-17 07:30N 30°06' W 093°19'3 5.7
2017-Sep-17 07:00N 30°04' W 093°21'1 1.2
2017-Sep-17 06:30N 30°04' W 093°21'0 0.0
2017-Sep-17 06:00N 30°04' W 093°21'0 0.0
2017-Sep-17 05:30N 30°04' W 093°21'0 0.0
2017-Sep-17 04:57N 30°04' W 093°21'0 0.0
2017-Sep-17 04:30N 30°04' W 093°21'0 0.2
2017-Sep-17 04:00N 30°04' W 093°21'0 0.2
2017-Sep-17 03:30N 30°04' W 093°21'0 0.0
2017-Sep-17 03:00N 30°04' W 093°21'0 0.0
2017-Sep-17 02:30N 30°04' W 093°21'0 0.0
2017-Sep-17 02:00N 30°04' W 093°21'0 0.0
2017-Sep-17 01:30N 30°04' W 093°21'0 0.0
2017-Sep-17 01:00N 30°04' W 093°21'2 4.0
2017-Sep-17 00:30N 30°05' W 093°20'3 6.5
2017-Sep-17 00:00N 30°08' W 093°20'0 0.6
2017-Sep-16 23:30N 30°09' W 093°20'0 0.2
2017-Sep-16 23:00N 30°09' W 093°20'0 0.0
2017-Sep-16 22:30N 30°09' W 093°20'0 0.0
2017-Sep-16 22:00N 30°09' W 093°20'0 0.0
2017-Sep-16 21:30N 30°09' W 093°20'2 3.9
2017-Sep-16 21:00N 30°07' W 093°20'3 5.8
2017-Sep-16 20:30N 30°04' W 093°21'1 1.1
2017-Sep-16 20:00N 30°04' W 093°21'1 2.3
2017-Sep-16 19:30N 30°05' W 093°20'0 0.0
2017-Sep-16 19:00N 30°05' W 093°20'1 2.4
2017-Sep-16 18:30N 30°04' W 093°21'2 3.6
2017-Sep-16 18:00N 30°05' W 093°20'2 4.1
2017-Sep-16 17:30N 30°04' W 093°22'0 0.5
2017-Sep-16 17:00N 30°04' W 093°21'0 0.1
2017-Sep-16 16:30N 30°04' W 093°21'0 0.0
2017-Sep-16 16:00N 30°04' W 093°21'0 0.1
2017-Sep-16 15:30N 30°04' W 093°21'0 0.1
2017-Sep-16 15:00N 30°04' W 093°21'0 0.0
2017-Sep-16 14:30N 30°04' W 093°21'0 0.0
2017-Sep-16 14:00N 30°04' W 093°21'0 0.0
2017-Sep-16 13:30N 30°04' W 093°21'0 0.0
2017-Sep-16 13:00N 30°04' W 093°21'0 0.0
2017-Sep-16 12:30N 30°04' W 093°21'0 0.0
2017-Sep-16 12:00N 30°04' W 093°21'0 0.0
2017-Sep-16 11:30N 30°04' W 093°21'0 0.0
2017-Sep-16 11:00N 30°04' W 093°21'0 0.0
2017-Sep-16 10:30N 30°04' W 093°21'0 0.0
2017-Sep-16 10:00N 30°04' W 093°21'0 0.0
2017-Sep-16 09:30N 30°04' W 093°21'0 0.0
2017-Sep-16 09:00N 30°04' W 093°21'0 0.0
2017-Sep-16 08:30N 30°04' W 093°21'0 0.0
2017-Sep-16 08:00N 30°04' W 093°21'0 0.0
2017-Sep-16 07:30N 30°04' W 093°21'0 0.0
2017-Sep-16 07:00N 30°04' W 093°21'0 0.0
2017-Sep-16 06:30N 30°04' W 093°21'0 0.0
2017-Sep-16 06:00N 30°04' W 093°21'0 0.0
2017-Sep-16 05:30N 30°04' W 093°21'0 0.1
2017-Sep-16 05:00N 30°04' W 093°21'3 5.2
2017-Sep-16 04:30N 30°06' W 093°19'1 2.1
2017-Sep-16 04:00N 30°06' W 093°18'0 0.0
2017-Sep-16 03:30N 30°06' W 093°18'0 0.4
2017-Sep-16 03:00N 30°06' W 093°19'2 4.5
2017-Sep-16 02:30N 30°05' W 093°20'1 2.4
2017-Sep-16 02:00N 30°04' W 093°21'3 4.9
2017-Sep-16 01:28N 30°04' W 093°24'3 6.9
2017-Sep-16 01:00N 30°04' W 093°28'3 6.8
2017-Sep-16 00:30N 30°04' W 093°32'  
2017-Sep-12 15:01N 30°04' W 093°31'0 5.4
2017-Sep-12 14:58N 30°04' W 093°31'2 5.2
2017-Sep-12 14:30N 30°04' W 093°28'3 5.3
2017-Sep-12 14:00N 30°04' W 093°25'8 1.0
2017-Sep-12 06:19N 30°10' W 093°20'2 5.3
2017-Sep-12 06:00N 30°08' W 093°20'3 5.5
2017-Sep-12 05:29N 30°05' W 093°20'0 0.9
2017-Sep-12 05:01N 30°05' W 093°20'0 0.0
2017-Sep-12 04:30N 30°05' W 093°20'0 0.0
2017-Sep-12 04:00N 30°05' W 093°20'0 0.1
2017-Sep-12 03:30N 30°05' W 093°20'0 0.8
2017-Sep-12 03:01N 30°04' W 093°20'1 2.3
2017-Sep-12 02:30N 30°04' W 093°21'2 3.4
2017-Sep-12 02:00N 30°05' W 093°20'2 3.7
2017-Sep-12 01:30N 30°06' W 093°18'0 0.1
2017-Sep-12 01:01N 30°06' W 093°18'0 0.1
2017-Sep-12 00:30N 30°06' W 093°18'0 0.0
2017-Sep-12 00:00N 30°06' W 093°18'0 0.4
2017-Sep-11 23:31N 30°06' W 093°18'0 0.1
2017-Sep-11 23:00N 30°06' W 093°18'0 0.0
2017-Sep-11 22:30N 30°06' W 093°18'1 2.1
2017-Sep-11 22:00N 30°06' W 093°20'3 6.5
2017-Sep-11 21:30N 30°09' W 093°20'3 5.8
2017-Sep-11 21:00N 30°11' W 093°18'3 6.1
2017-Sep-11 20:30N 30°13' W 093°15'1 1.2
2017-Sep-11 20:00N 30°13' W 093°16'3 5.3
2017-Sep-11 19:31N 30°11' W 093°18'2 5.0
2017-Sep-11 19:01N 30°09' W 093°20'3 5.0
2017-Sep-11 18:30N 30°07' W 093°20'2 4.8
2017-Sep-11 18:01N 30°04' W 093°20'0 0.0
2017-Sep-11 17:30N 30°04' W 093°20'1 1.4
2017-Sep-11 17:00N 30°05' W 093°20'0 0.0
2017-Sep-11 16:30N 30°05' W 093°20'0 0.0
2017-Sep-11 16:00N 30°05' W 093°20'0 0.0
2017-Sep-11 15:31N 30°05' W 093°20'0 0.0
2017-Sep-11 14:52N 30°05' W 093°20'0 0.0
2017-Sep-11 14:30N 30°05' W 093°20'0 0.4
2017-Sep-11 14:00N 30°05' W 093°20'3 6.0
2017-Sep-11 13:28N 30°08' W 093°20'1 0.7
2017-Sep-11 12:01N 30°09' W 093°20'  
Track history (hours):
 
Tides and Currents Weather Stations Pressure Air Temp Water Temp Dewpoint Dewpoint Depression Visibility Wind Speed Wind Dir Waves Ship Positions

Matt Devall

Owner: MATT DEVALL INC, HACKBERRY, LA. More information available from US FCC via Universal Licensing System and Coast Guard Vessel Documentation Center.

Last reported at 2017-Sep-21 12:00 UTC. Time now 2017-Sep-21 12:27 UTC.
Position N 30°14' W 093°15'.

Length 17 m; draft 2.6 m.

MMSI: 366974120.

Date/timePositionNaut miles runAvg speedWind from/ knotsBaromVisibWave heightAir tempDewpointWater temp
2017-Sep-21 12:00N 30°14' W 093°15'0 0.0
2017-Sep-21 11:30N 30°14' W 093°15'0 0.0
2017-Sep-21 11:00N 30°14' W 093°15'0 0.0
2017-Sep-21 10:30N 30°14' W 093°15'0 0.0
2017-Sep-21 10:00N 30°14' W 093°15'0 0.0
2017-Sep-21 09:30N 30°14' W 093°15'0 0.0
2017-Sep-21 09:00N 30°14' W 093°15'0 0.0
2017-Sep-21 08:30N 30°14' W 093°15'0 0.0
2017-Sep-21 08:00N 30°14' W 093°15'0 0.0
2017-Sep-21 07:30N 30°14' W 093°15'0 0.0
2017-Sep-21 07:00N 30°14' W 093°15'0 0.0
2017-Sep-21 06:30N 30°14' W 093°15'1 1.8
2017-Sep-21 06:00N 30°13' W 093°16'3 7.0
2017-Sep-21 05:30N 30°11' W 093°19'3 6.8
2017-Sep-21 05:00N 30°08' W 093°20'3 6.7
2017-Sep-21 04:30N 30°04' W 093°21'1 1.5
2017-Sep-21 04:00N 30°04' W 093°21'1 1.1
2017-Sep-21 03:30N 30°04' W 093°21'0 0.6
2017-Sep-21 03:00N 30°04' W 093°20'1 3.0
2017-Sep-21 02:30N 30°06' W 093°20'3 6.6
2017-Sep-21 02:00N 30°09' W 093°20'2 4.3
2017-Sep-21 01:30N 30°11' W 093°19'3 5.3
2017-Sep-21 01:00N 30°13' W 093°17'1 1.4
2017-Sep-21 00:30N 30°14' W 093°17'0 0.2
2017-Sep-21 00:00N 30°13' W 093°17'0 0.1
2017-Sep-20 23:30N 30°13' W 093°17'0 0.0
2017-Sep-20 23:00N 30°13' W 093°17'0 0.0
2017-Sep-20 22:30N 30°13' W 093°17'0 0.0
2017-Sep-20 22:00N 30°13' W 093°17'3 5.3
2017-Sep-20 21:30N 30°11' W 093°18'0 0.7
2017-Sep-20 21:00N 30°11' W 093°19'0 0.3
2017-Sep-20 20:30N 30°11' W 093°19'0 0.0
2017-Sep-20 20:00N 30°11' W 093°19'0 0.0
2017-Sep-20 19:30N 30°11' W 093°19'0 0.0
2017-Sep-20 19:00N 30°11' W 093°19'0 0.0
2017-Sep-20 18:30N 30°11' W 093°19'3 5.7
2017-Sep-20 18:00N 30°12' W 093°16'2 3.0
2017-Sep-20 17:30N 30°14' W 093°15'0 0.0
2017-Sep-20 17:00N 30°14' W 093°15'0 0.0
2017-Sep-20 16:30N 30°14' W 093°15'1 1.8
2017-Sep-20 16:00N 30°13' W 093°15'0 0.7
2017-Sep-20 15:30N 30°13' W 093°15'0 0.4
2017-Sep-20 15:00N 30°14' W 093°15'2 2.2
2017-Sep-20 14:00N 30°12' W 093°17'3 5.4
2017-Sep-20 13:30N 30°10' W 093°19'2 4.8
2017-Sep-20 13:00N 30°08' W 093°20'3 5.1
2017-Sep-20 12:30N 30°06' W 093°20'2 4.4
2017-Sep-20 12:00N 30°04' W 093°21'1 1.7
2017-Sep-20 11:30N 30°04' W 093°20'1 1.5
2017-Sep-20 11:00N 30°05' W 093°20'0 0.0
2017-Sep-20 10:30N 30°05' W 093°20'0 0.0
2017-Sep-20 10:00N 30°05' W 093°20'0 0.0
2017-Sep-20 09:30N 30°05' W 093°20'0 0.0
2017-Sep-20 09:00N 30°05' W 093°20'0 0.0
2017-Sep-20 08:30N 30°05' W 093°20'0 0.0
2017-Sep-20 08:00N 30°05' W 093°20'1 3.0
2017-Sep-20 07:30N 30°06' W 093°20'2 5.0
2017-Sep-20 07:00N 30°09' W 093°20'2 4.3
2017-Sep-20 06:30N 30°11' W 093°19'3 5.7
2017-Sep-20 06:00N 30°12' W 093°16'2 3.2
2017-Sep-20 05:30N 30°14' W 093°15'0 0.0
2017-Sep-20 05:00N 30°14' W 093°15'0 0.1
2017-Sep-20 04:30N 30°14' W 093°15'3 5.1
2017-Sep-20 04:00N 30°12' W 093°17'3 5.3
2017-Sep-20 03:30N 30°10' W 093°19'3 5.3
2017-Sep-20 03:00N 30°07' W 093°20'3 5.5
2017-Sep-20 02:30N 30°05' W 093°20'1 2.2
2017-Sep-20 02:00N 30°04' W 093°21'0 0.0
2017-Sep-20 01:30N 30°04' W 093°21'0 0.0
2017-Sep-20 01:00N 30°04' W 093°21'0 0.2
2017-Sep-20 00:30N 30°04' W 093°21'3 5.1
2017-Sep-20 00:00N 30°06' W 093°20'3 6.2
2017-Sep-19 23:30N 30°09' W 093°20'3 5.9
2017-Sep-19 23:00N 30°11' W 093°18'3 5.8
2017-Sep-19 22:30N 30°13' W 093°16'1 1.4
2017-Sep-19 22:00N 30°14' W 093°15'0 0.0
2017-Sep-19 21:30N 30°14' W 093°15'0 0.0
2017-Sep-19 21:00N 30°14' W 093°15'0 0.0
2017-Sep-19 20:30N 30°14' W 093°15'0 0.0
2017-Sep-19 20:00N 30°14' W 093°15'0 0.0
2017-Sep-19 19:30N 30°14' W 093°15'0 0.0
2017-Sep-19 19:00N 30°14' W 093°15'0 0.0
2017-Sep-19 18:30N 30°14' W 093°15'0 0.0
2017-Sep-19 18:00N 30°14' W 093°15'0 0.0
2017-Sep-19 17:30N 30°14' W 093°15'0 0.0
2017-Sep-19 17:00N 30°14' W 093°15'0 0.0
2017-Sep-19 16:30N 30°14' W 093°15'0 0.0
2017-Sep-19 16:00N 30°14' W 093°15'0 0.0
2017-Sep-19 15:30N 30°14' W 093°15'0 0.0
2017-Sep-19 15:00N 30°14' W 093°15'0 0.0
2017-Sep-19 14:30N 30°14' W 093°15'0 0.0
2017-Sep-19 14:00N 30°14' W 093°15'0 0.0
2017-Sep-19 13:30N 30°14' W 093°15'0 0.0
2017-Sep-19 13:00N 30°14' W 093°15'0 0.0
2017-Sep-19 12:30N 30°14' W 093°15'0 0.0
2017-Sep-19 12:00N 30°14' W 093°15'0 0.0
2017-Sep-19 11:30N 30°14' W 093°15'0 0.0
2017-Sep-19 11:00N 30°14' W 093°15'0 0.0
2017-Sep-19 10:30N 30°14' W 093°15'0 0.0
2017-Sep-19 10:00N 30°14' W 093°15'0 0.0
2017-Sep-19 09:30N 30°14' W 093°15'0 0.0
2017-Sep-19 09:00N 30°14' W 093°15'0 0.0
2017-Sep-19 08:30N 30°14' W 093°15'1 2.3
2017-Sep-19 08:00N 30°13' W 093°16'3 5.9
2017-Sep-19 07:30N 30°11' W 093°18'3 6.3
2017-Sep-19 07:00N 30°08' W 093°20'4 7.1
2017-Sep-19 06:30N 30°05' W 093°20'2 3.3
2017-Sep-19 06:00N 30°04' W 093°22'0 0.7
2017-Sep-19 05:30N 30°04' W 093°21'0 0.0
2017-Sep-19 05:00N 30°04' W 093°21'0 0.0
2017-Sep-19 04:30N 30°04' W 093°21'0 0.0
2017-Sep-19 04:00N 30°04' W 093°21'0 0.0
2017-Sep-19 03:30N 30°04' W 093°21'0 0.0
2017-Sep-19 03:00N 30°04' W 093°21'0 0.0
2017-Sep-19 02:30N 30°04' W 093°21'0 0.0
2017-Sep-19 02:00N 30°04' W 093°21'0 0.0
2017-Sep-19 01:30N 30°04' W 093°21'0 0.0
2017-Sep-19 01:00N 30°04' W 093°21'0 0.0
2017-Sep-19 00:30N 30°04' W 093°21'1 1.6
2017-Sep-19 00:00N 30°04' W 093°22'0 0.6
2017-Sep-18 23:30N 30°04' W 093°22'1 2.4
2017-Sep-18 23:00N 30°04' W 093°21'1 2.1
2017-Sep-18 22:30N 30°05' W 093°20'0 0.0
2017-Sep-18 22:00N 30°05' W 093°20'1 1.3
2017-Sep-18 21:30N 30°06' W 093°20'3 6.0
2017-Sep-18 21:00N 30°09' W 093°20'3 5.8
2017-Sep-18 20:30N 30°11' W 093°18'3 6.1
2017-Sep-18 20:00N 30°13' W 093°16'1 1.6
2017-Sep-18 19:29N 30°14' W 093°15'0 0.0
2017-Sep-18 18:58N 30°14' W 093°15'2 3.7
2017-Sep-18 18:30N 30°12' W 093°16'3 6.2
2017-Sep-18 18:00N 30°10' W 093°19'3 5.8
2017-Sep-18 17:30N 30°07' W 093°20'3 5.8
2017-Sep-18 17:00N 30°05' W 093°20'1 2.4
2017-Sep-18 16:30N 30°04' W 093°21'0 0.0
2017-Sep-18 16:00N 30°04' W 093°21'0 0.0
2017-Sep-18 15:30N 30°04' W 093°21'0 0.0
2017-Sep-18 15:00N 30°04' W 093°21'0 0.0
2017-Sep-18 14:30N 30°04' W 093°21'0 0.0
2017-Sep-18 14:00N 30°04' W 093°21'0 0.0
2017-Sep-18 13:30N 30°04' W 093°21'0 0.0
2017-Sep-18 13:00N 30°04' W 093°21'0 0.0
2017-Sep-18 12:30N 30°04' W 093°21'0 0.1
2017-Sep-18 12:00N 30°04' W 093°21'1 2.9
2017-Sep-18 11:30N 30°05' W 093°20'1 3.0
2017-Sep-18 11:00N 30°04' W 093°21'0 0.0
2017-Sep-18 10:30N 30°04' W 093°21'0 0.0
2017-Sep-18 10:00N 30°04' W 093°21'0 0.0
2017-Sep-18 09:30N 30°04' W 093°21'0 0.3
2017-Sep-18 09:00N 30°04' W 093°21'2 3.0
2017-Sep-18 08:30N 30°05' W 093°20'3 5.5
2017-Sep-18 08:00N 30°07' W 093°20'1 2.5
2017-Sep-18 07:30N 30°09' W 093°20'2 3.2
2017-Sep-18 07:00N 30°07' W 093°20'2 4.4
2017-Sep-18 06:30N 30°05' W 093°20'0 0.0
2017-Sep-18 06:00N 30°05' W 093°20'2 3.6
2017-Sep-18 05:30N 30°06' W 093°18'1 1.0
2017-Sep-18 05:00N 30°07' W 093°18'3 6.3
2017-Sep-18 04:30N 30°04' W 093°20'1 1.9
2017-Sep-18 04:00N 30°04' W 093°21'0 0.0
2017-Sep-18 03:30N 30°04' W 093°21'1 2.5
2017-Sep-18 03:00N 30°05' W 093°20'2 4.8
2017-Sep-18 02:30N 30°06' W 093°18'0 0.1
2017-Sep-18 02:00N 30°06' W 093°18'1 1.2
2017-Sep-18 01:30N 30°06' W 093°18'0 0.0
2017-Sep-18 01:00N 30°06' W 093°18'0 0.0
2017-Sep-18 00:30N 30°06' W 093°18'0 0.0
2017-Sep-18 00:00N 30°06' W 093°18'0 0.0
2017-Sep-17 23:30N 30°06' W 093°18'0 0.0
2017-Sep-17 23:00N 30°06' W 093°18'1 1.6
2017-Sep-17 22:30N 30°06' W 093°19'0 0.1
2017-Sep-17 22:00N 30°06' W 093°19'0 0.0
2017-Sep-17 21:30N 30°06' W 093°19'0 0.0
2017-Sep-17 21:00N 30°06' W 093°19'0 0.0
2017-Sep-17 20:30N 30°06' W 093°19'0 0.0
2017-Sep-17 20:00N 30°06' W 093°19'1 1.4
2017-Sep-17 19:30N 30°06' W 093°18'0 0.0
2017-Sep-17 19:00N 30°06' W 093°18'0 0.0
2017-Sep-17 18:30N 30°06' W 093°18'0 0.0
2017-Sep-17 18:00N 30°06' W 093°18'0 0.0
2017-Sep-17 17:30N 30°06' W 093°18'0 0.0
2017-Sep-17 17:00N 30°06' W 093°18'1 1.4
2017-Sep-17 16:30N 30°06' W 093°19'3 5.5
2017-Sep-17 16:00N 30°04' W 093°21'0 0.0
2017-Sep-17 15:30N 30°04' W 093°21'1 1.5
2017-Sep-17 15:00N 30°04' W 093°21'1 1.5
2017-Sep-17 14:30N 30°04' W 093°21'0 0.0
2017-Sep-17 14:00N 30°04' W 093°21'0 0.0
2017-Sep-17 13:30N 30°04' W 093°21'0 0.0
2017-Sep-17 13:00N 30°04' W 093°21'0 0.0
2017-Sep-17 12:30N 30°04' W 093°21'0 0.0
2017-Sep-17 12:00N 30°04' W 093°21'0 0.0
2017-Sep-17 11:30N 30°04' W 093°21'0 0.0
2017-Sep-17 11:00N 30°04' W 093°21'0 0.0
2017-Sep-17 10:30N 30°04' W 093°21'1 2.3
2017-Sep-17 10:00N 30°05' W 093°20'0 0.0
2017-Sep-17 09:30N 30°05' W 093°20'0 0.0
2017-Sep-17 09:00N 30°05' W 093°20'1 1.3
2017-Sep-17 08:30N 30°05' W 093°20'2 4.8
2017-Sep-17 08:00N 30°07' W 093°18'1 1.6
2017-Sep-17 07:30N 30°06' W 093°19'3 5.7
2017-Sep-17 07:00N 30°04' W 093°21'1 1.2
2017-Sep-17 06:30N 30°04' W 093°21'0 0.0
2017-Sep-17 06:00N 30°04' W 093°21'0 0.0
2017-Sep-17 05:30N 30°04' W 093°21'0 0.0
2017-Sep-17 04:57N 30°04' W 093°21'0 0.0
2017-Sep-17 04:30N 30°04' W 093°21'0 0.2
2017-Sep-17 04:00N 30°04' W 093°21'0 0.2
2017-Sep-17 03:30N 30°04' W 093°21'0 0.0
2017-Sep-17 03:00N 30°04' W 093°21'0 0.0
2017-Sep-17 02:30N 30°04' W 093°21'0 0.0
2017-Sep-17 02:00N 30°04' W 093°21'0 0.0
2017-Sep-17 01:30N 30°04' W 093°21'0 0.0
2017-Sep-17 01:00N 30°04' W 093°21'2 4.0
2017-Sep-17 00:30N 30°05' W 093°20'3 6.5
2017-Sep-17 00:00N 30°08' W 093°20'0 0.6
2017-Sep-16 23:30N 30°09' W 093°20'0 0.2
2017-Sep-16 23:00N 30°09' W 093°20'0 0.0
2017-Sep-16 22:30N 30°09' W 093°20'0 0.0
2017-Sep-16 22:00N 30°09' W 093°20'0 0.0
2017-Sep-16 21:30N 30°09' W 093°20'2 3.9
2017-Sep-16 21:00N 30°07' W 093°20'3 5.8
2017-Sep-16 20:30N 30°04' W 093°21'1 1.1
2017-Sep-16 20:00N 30°04' W 093°21'1 2.3
2017-Sep-16 19:30N 30°05' W 093°20'0 0.0
2017-Sep-16 19:00N 30°05' W 093°20'1 2.4
2017-Sep-16 18:30N 30°04' W 093°21'2 3.6
2017-Sep-16 18:00N 30°05' W 093°20'2 4.1
2017-Sep-16 17:30N 30°04' W 093°22'0 0.5
2017-Sep-16 17:00N 30°04' W 093°21'0 0.1
2017-Sep-16 16:30N 30°04' W 093°21'0 0.0
2017-Sep-16 16:00N 30°04' W 093°21'0 0.1
2017-Sep-16 15:30N 30°04' W 093°21'0 0.1
2017-Sep-16 15:00N 30°04' W 093°21'0 0.0
2017-Sep-16 14:30N 30°04' W 093°21'0 0.0
2017-Sep-16 14:00N 30°04' W 093°21'0 0.0
2017-Sep-16 13:30N 30°04' W 093°21'0 0.0
2017-Sep-16 13:00N 30°04' W 093°21'0 0.0
2017-Sep-16 12:30N 30°04' W 093°21'0 0.0
2017-Sep-16 12:00N 30°04' W 093°21'0 0.0
2017-Sep-16 11:30N 30°04' W 093°21'0 0.0
2017-Sep-16 11:00N 30°04' W 093°21'0 0.0
2017-Sep-16 10:30N 30°04' W 093°21'0 0.0
2017-Sep-16 10:00N 30°04' W 093°21'0 0.0
2017-Sep-16 09:30N 30°04' W 093°21'0 0.0
2017-Sep-16 09:00N 30°04' W 093°21'0 0.0
2017-Sep-16 08:30N 30°04' W 093°21'0 0.0
2017-Sep-16 08:00N 30°04' W 093°21'0 0.0
2017-Sep-16 07:30N 30°04' W 093°21'0 0.0
2017-Sep-16 07:00N 30°04' W 093°21'0 0.0
2017-Sep-16 06:30N 30°04' W 093°21'0 0.0
2017-Sep-16 06:00N 30°04' W 093°21'0 0.0
2017-Sep-16 05:30N 30°04' W 093°21'0 0.1
2017-Sep-16 05:00N 30°04' W 093°21'3 5.2
2017-Sep-16 04:30N 30°06' W 093°19'1 2.1
2017-Sep-16 04:00N 30°06' W 093°18'0 0.0
2017-Sep-16 03:30N 30°06' W 093°18'0 0.4
2017-Sep-16 03:00N 30°06' W 093°19'2 4.5
2017-Sep-16 02:30N 30°05' W 093°20'1 2.4
2017-Sep-16 02:00N 30°04' W 093°21'3 4.9
2017-Sep-16 01:28N 30°04' W 093°24'3 6.9
2017-Sep-16 01:00N 30°04' W 093°28'3 6.8
2017-Sep-16 00:30N 30°04' W 093°32'  
2017-Sep-12 15:01N 30°04' W 093°31'0 5.4
2017-Sep-12 14:58N 30°04' W 093°31'2 5.2
2017-Sep-12 14:30N 30°04' W 093°28'3 5.3
2017-Sep-12 14:00N 30°04' W 093°25'8 1.0
2017-Sep-12 06:19N 30°10' W 093°20'2 5.3
2017-Sep-12 06:00N 30°08' W 093°20'3 5.5
2017-Sep-12 05:29N 30°05' W 093°20'0 0.9
2017-Sep-12 05:01N 30°05' W 093°20'0 0.0
2017-Sep-12 04:30N 30°05' W 093°20'0 0.0
2017-Sep-12 04:00N 30°05' W 093°20'0 0.1
2017-Sep-12 03:30N 30°05' W 093°20'0 0.8
2017-Sep-12 03:01N 30°04' W 093°20'1 2.3
2017-Sep-12 02:30N 30°04' W 093°21'2 3.4
2017-Sep-12 02:00N 30°05' W 093°20'2 3.7
2017-Sep-12 01:30N 30°06' W 093°18'0 0.1
2017-Sep-12 01:01N 30°06' W 093°18'0 0.1
2017-Sep-12 00:30N 30°06' W 093°18'0 0.0
2017-Sep-12 00:00N 30°06' W 093°18'0 0.4
2017-Sep-11 23:31N 30°06' W 093°18'0 0.1
2017-Sep-11 23:00N 30°06' W 093°18'0 0.0
2017-Sep-11 22:30N 30°06' W 093°18'1 2.1
2017-Sep-11 22:00N 30°06' W 093°20'3 6.5
2017-Sep-11 21:30N 30°09' W 093°20'3 5.8
2017-Sep-11 21:00N 30°11' W 093°18'3 6.1
2017-Sep-11 20:30N 30°13' W 093°15'1 1.2
2017-Sep-11 20:00N 30°13' W 093°16'3 5.3
2017-Sep-11 19:31N 30°11' W 093°18'2 5.0
2017-Sep-11 19:01N 30°09' W 093°20'3 5.0
2017-Sep-11 18:30N 30°07' W 093°20'2 4.8
2017-Sep-11 18:01N 30°04' W 093°20'0 0.0
2017-Sep-11 17:30N 30°04' W 093°20'1 1.4
2017-Sep-11 17:00N 30°05' W 093°20'0 0.0
2017-Sep-11 16:30N 30°05' W 093°20'0 0.0
2017-Sep-11 16:00N 30°05' W 093°20'0 0.0
2017-Sep-11 15:31N 30°05' W 093°20'0 0.0
2017-Sep-11 14:52N 30°05' W 093°20'0 0.0
2017-Sep-11 14:30N 30°05' W 093°20'0 0.4
2017-Sep-11 14:00N 30°05' W 093°20'3 6.0
2017-Sep-11 13:28N 30°08' W 093°20'1 0.7
2017-Sep-11 12:01N 30°09' W 093°20'  

Dump ship's entire track history